createdAt,value
2022-09-20T00:01:53.056Z,18.95
2022-09-20T00:04:22.336Z,22.60
2022-09-20T00:06:52.375Z,27.25
2022-09-20T00:09:22.061Z,22.63
2022-09-20T00:11:51.847Z,24.30
2022-09-20T00:14:20.621Z,17.95
2022-09-20T00:16:49.390Z,20.60
2022-09-20T00:19:23.150Z,36.88
2022-09-20T00:21:51.845Z,28.95
2022-09-20T00:24:20.866Z,29.10
2022-09-20T00:26:49.451Z,26.42
2022-09-20T00:29:18.141Z,20.42
2022-09-20T00:31:48.063Z,21.17
2022-09-20T00:34:35.038Z,43.42
2022-09-20T00:37:03.870Z,23.02
2022-09-20T00:39:32.807Z,26.20
2022-09-20T00:42:01.603Z,33.72
2022-09-20T00:45:00.843Z,32.33
2022-09-20T00:47:37.021Z,86.55
2022-09-20T00:50:42.368Z,65.70
2022-09-20T00:53:17.421Z,87.47
2022-09-20T00:56:02.500Z,39.13
2022-09-20T00:58:37.687Z,68.30
2022-09-20T01:01:07.570Z,27.65
2022-09-20T01:03:37.957Z,27.23
2022-09-20T01:06:11.008Z,25.75
2022-09-20T01:08:40.887Z,18.65
2022-09-20T01:11:09.585Z,28.77
2022-09-20T01:13:38.416Z,29.95
2022-09-20T01:16:08.801Z,18.02
2022-09-20T01:18:39.196Z,34.67
2022-09-20T01:21:09.795Z,28.67
2022-09-20T01:23:57.466Z,24.27
2022-09-20T01:26:28.837Z,19.83
2022-09-20T01:29:17.667Z,25.30
2022-09-20T01:31:53.808Z,27.90
2022-09-20T01:34:29.944Z,26.85
2022-09-20T01:37:23.963Z,21.73
2022-09-20T01:39:58.245Z,18.45
2022-09-20T01:42:37.138Z,22.58
2022-09-20T01:45:23.236Z,21.73
2022-09-20T01:48:20.025Z,20.63
2022-09-20T01:51:19.748Z,19.95
2022-09-20T01:54:40.943Z,22.48
2022-09-20T01:57:40.062Z,23.92
2022-09-20T02:00:18.641Z,28.58
2022-09-20T02:03:05.649Z,29.08
2022-09-20T02:06:11.803Z,81.45
2022-09-20T02:08:49.718Z,23.52
2022-09-20T02:11:45.661Z,49.33
2022-09-20T02:14:50.417Z,39.67
2022-09-20T02:17:49.637Z,47.25
2022-09-20T02:20:48.561Z,28.77
2022-09-20T02:23:37.887Z,25.35
2022-09-20T02:26:45.850Z,17.98
2022-09-20T02:29:41.034Z,29.42
2022-09-20T02:32:19.473Z,24.15
2022-09-20T02:35:37.130Z,28.15
2022-09-20T02:38:23.653Z,33.28
2022-09-20T02:41:09.693Z,29.63
2022-09-20T02:44:17.891Z,26.15
2022-09-20T02:47:08.089Z,37.05
2022-09-20T02:50:07.408Z,33.55
2022-09-20T02:52:44.435Z,32.95
2022-09-20T02:55:19.731Z,26.15
2022-09-20T02:58:05.951Z,23.67
2022-09-20T03:00:44.027Z,31.70
2022-09-20T03:03:19.034Z,25.00
2022-09-20T03:05:56.393Z,36.08
2022-09-20T03:08:34.213Z,39.45
2022-09-20T03:11:21.193Z,41.72
2022-09-20T03:14:06.385Z,40.67
2022-09-20T03:17:22.329Z,39.28
2022-09-20T03:20:16.761Z,25.40
2022-09-20T03:23:14.570Z,27.60
2022-09-20T03:25:58.305Z,31.02
2022-09-20T03:29:08.002Z,32.65
2022-09-20T03:31:55.617Z,40.42
2022-09-20T03:34:33.421Z,32.10
2022-09-20T03:37:17.445Z,32.42
2022-09-20T03:40:16.674Z,29.00
2022-09-20T03:42:52.767Z,21.50
2022-09-20T03:45:34.068Z,23.10
2022-09-20T03:48:30.734Z,34.17
2022-09-20T03:51:24.634Z,24.08
2022-09-20T03:54:13.890Z,27.30
2022-09-20T03:57:20.192Z,27.33
2022-09-20T04:00:06.830Z,28.92
2022-09-20T04:03:23.248Z,29.17
2022-09-20T04:06:11.090Z,29.10
2022-09-20T04:08:55.677Z,26.13
2022-09-20T04:12:00.436Z,30.60
2022-09-20T04:14:54.390Z,31.90
2022-09-20T04:17:47.624Z,30.42
2022-09-20T04:20:16.474Z,32.70
2022-09-20T04:22:47.654Z,41.20
2022-09-20T04:25:24.205Z,26.75
2022-09-20T04:28:11.875Z,51.05
2022-09-20T04:30:44.916Z,38.03
2022-09-20T04:33:26.677Z,33.78
2022-09-20T04:36:32.537Z,31.08
2022-09-20T04:39:02.759Z,41.47
2022-09-20T04:42:09.764Z,44.50
2022-09-20T04:44:56.664Z,35.33
2022-09-20T04:47:40.230Z,39.17
2022-09-20T04:50:31.552Z,32.20
2022-09-20T04:53:30.431Z,23.15
2022-09-20T04:56:08.221Z,36.22
2022-09-20T04:59:06.885Z,29.15
2022-09-20T05:02:29.797Z,40.13
2022-09-20T05:05:22.503Z,42.08
2022-09-20T05:08:35.088Z,38.72
2022-09-20T05:11:32.304Z,40.17
2022-09-20T05:14:28.476Z,41.53
2022-09-20T05:17:15.497Z,44.60
2022-09-20T05:20:04.137Z,30.77
2022-09-20T05:22:54.284Z,45.50
2022-09-20T05:25:40.777Z,35.80
2022-09-20T05:28:24.971Z,40.75
2022-09-20T05:30:58.726Z,37.30
2022-09-20T05:33:49.104Z,42.47
2022-09-20T05:36:45.410Z,36.28
2022-09-20T05:39:48.896Z,37.55
2022-09-20T05:42:24.739Z,58.88
2022-09-20T05:45:07.494Z,27.35
2022-09-20T05:48:37.980Z,37.30
2022-09-20T05:51:11.657Z,33.28
2022-09-20T05:54:18.287Z,43.75
2022-09-20T05:57:08.176Z,36.83
2022-09-20T06:00:28.680Z,40.10
2022-09-20T06:03:22.351Z,27.95
2022-09-20T06:06:12.292Z,38.80
2022-09-20T06:09:02.094Z,58.42
2022-09-20T06:11:49.604Z,32.78
2022-09-20T06:14:45.839Z,31.85
2022-09-20T06:17:20.147Z,32.35
2022-09-20T06:20:04.160Z,38.15
2022-09-20T06:22:39.679Z,49.20
2022-09-20T06:25:08.556Z,32.08
2022-09-20T06:27:54.748Z,28.75
2022-09-20T06:30:31.715Z,65.38
2022-09-20T06:33:14.831Z,28.95
2022-09-20T06:35:54.742Z,32.75
2022-09-20T06:39:00.283Z,26.88
2022-09-20T06:41:31.940Z,26.75
2022-09-20T06:44:07.404Z,24.55
2022-09-20T06:46:37.241Z,26.38
2022-09-20T06:49:09.453Z,26.20
2022-09-20T06:51:40.175Z,27.98
2022-09-20T06:54:16.322Z,30.40
2022-09-20T06:56:47.678Z,29.67
2022-09-20T06:59:16.280Z,21.88
2022-09-20T07:01:45.711Z,19.85
2022-09-20T07:04:14.597Z,23.90
2022-09-20T07:06:43.300Z,20.23
2022-09-20T07:09:12.680Z,30.02
2022-09-20T07:11:41.432Z,32.33
2022-09-20T07:14:10.315Z,24.33
2022-09-20T07:16:39.518Z,26.38
2022-09-20T07:19:09.020Z,28.88
2022-09-20T07:21:38.023Z,19.95
2022-09-20T07:24:06.843Z,17.98
2022-09-20T07:26:35.875Z,23.88
2022-09-20T07:29:04.995Z,18.60
2022-09-20T07:31:34.178Z,20.23
2022-09-20T07:34:03.098Z,26.45
2022-09-20T07:36:31.717Z,22.70
2022-09-20T07:39:00.592Z,17.13
2022-09-20T07:41:32.093Z,19.00
2022-09-20T07:44:20.686Z,20.45
2022-09-20T07:46:50.480Z,18.20
2022-09-20T07:49:19.744Z,26.10
2022-09-20T07:51:49.767Z,16.50
2022-09-20T07:54:18.993Z,21.23
2022-09-20T07:56:48.428Z,31.17
2022-09-20T07:59:17.421Z,17.70
2022-09-20T08:01:46.291Z,15.32
2022-09-20T08:04:15.486Z,19.17
2022-09-20T08:06:46.067Z,16.90
2022-09-20T08:09:15.642Z,16.63
2022-09-20T08:11:44.766Z,18.10
2022-09-20T08:14:18.735Z,27.30
2022-09-20T08:16:53.431Z,18.08
2022-09-20T08:19:23.827Z,14.05
2022-09-20T08:21:54.771Z,23.38
2022-09-20T08:24:23.897Z,20.23
2022-09-20T08:26:52.776Z,16.67
2022-09-20T08:29:21.668Z,20.20
2022-09-20T08:31:50.308Z,17.40
2022-09-20T08:34:19.579Z,19.20
2022-09-20T08:36:50.856Z,18.92
2022-09-20T08:42:24.477Z,13.05
2022-09-20T08:45:02.558Z,14.30
2022-09-20T08:47:37.855Z,21.73
2022-09-20T08:50:09.494Z,12.60
2022-09-20T08:52:40.942Z,17.38
2022-09-20T08:55:19.483Z,13.52
2022-09-20T08:57:55.413Z,15.30
2022-09-20T09:00:27.756Z,13.18
2022-09-20T09:02:59.011Z,14.65
2022-09-20T09:05:44.131Z,12.52
2022-09-20T09:08:23.148Z,19.85
2022-09-20T09:11:18.535Z,12.43
2022-09-20T09:14:05.449Z,23.23
2022-09-20T09:16:36.658Z,11.77
2022-09-20T09:19:34.576Z,14.48
2022-09-20T09:22:06.495Z,17.13
2022-09-20T09:24:35.083Z,10.40
2022-09-20T09:27:20.750Z,10.63
2022-09-20T09:29:55.820Z,14.90
2022-09-20T09:32:30.065Z,12.98
2022-09-20T09:35:21.257Z,11.45
2022-09-20T09:37:59.315Z,9.77
2022-09-20T09:40:30.287Z,13.48
2022-09-20T09:43:02.462Z,14.30
2022-09-20T09:45:39.381Z,12.85
2022-09-20T09:48:22.748Z,7.40
2022-09-20T09:50:52.370Z,13.38
2022-09-20T09:53:24.076Z,17.38
2022-09-20T09:55:53.406Z,11.52
2022-09-20T09:58:40.114Z,20.15
2022-09-20T10:01:22.398Z,13.68
2022-09-20T10:04:02.150Z,14.50
2022-09-20T10:06:52.227Z,13.43
2022-09-20T10:09:32.784Z,18.50
2022-09-20T10:12:58.669Z,12.23
2022-09-20T10:15:42.424Z,19.65
2022-09-20T10:18:25.463Z,19.67
2022-09-20T10:21:09.198Z,15.80
2022-09-20T10:24:02.722Z,16.77
2022-09-20T10:26:50.500Z,20.60
2022-09-20T10:29:32.699Z,15.57
2022-09-20T10:32:16.882Z,13.80
2022-09-20T10:35:15.242Z,9.65
2022-09-20T10:38:02.145Z,15.55
2022-09-20T10:41:16.909Z,10.73
2022-09-20T10:44:19.678Z,17.37
2022-09-20T10:47:03.237Z,14.98
2022-09-20T10:49:50.719Z,23.50
2022-09-20T10:52:32.508Z,15.38
2022-09-20T10:55:36.087Z,17.00
2022-09-20T10:58:22.637Z,11.80
2022-09-20T11:01:01.667Z,13.18
2022-09-20T11:03:49.170Z,14.20
2022-09-20T11:06:40.956Z,10.15
2022-09-20T11:09:18.351Z,8.98
2022-09-20T11:12:11.152Z,13.82
2022-09-20T11:15:05.267Z,16.02
2022-09-20T11:17:42.121Z,13.87
2022-09-20T11:20:23.410Z,27.45
2022-09-20T11:23:12.884Z,11.02
2022-09-20T11:25:49.255Z,25.88
2022-09-20T11:28:27.241Z,17.40
2022-09-20T11:31:27.165Z,13.98
2022-09-20T11:34:02.502Z,19.27
2022-09-20T11:36:44.653Z,18.83
2022-09-20T11:39:26.637Z,19.65
2022-09-20T11:41:58.020Z,16.45
2022-09-20T11:44:27.226Z,19.13
2022-09-20T11:47:04.510Z,17.45
2022-09-20T11:49:51.281Z,17.08
2022-09-20T11:52:44.450Z,16.15
2022-09-20T11:55:42.021Z,15.05
2022-09-20T11:58:17.804Z,19.25
2022-09-20T12:00:49.723Z,22.00
2022-09-20T12:03:40.990Z,21.30
2022-09-20T12:06:21.471Z,20.23
2022-09-20T12:08:52.646Z,16.30
2022-09-20T12:11:34.542Z,19.08
2022-09-20T12:14:08.309Z,21.25
2022-09-20T12:16:47.746Z,36.80
2022-09-20T12:19:22.458Z,20.95
2022-09-20T12:22:00.471Z,24.25
2022-09-20T12:24:34.665Z,15.30
2022-09-20T12:30:04.126Z,29.00
2022-09-20T12:32:46.100Z,19.27
2022-09-20T12:35:53.706Z,12.88
2022-09-20T12:38:22.396Z,17.13
2022-09-20T12:41:15.054Z,257.42
2022-09-20T12:44:22.809Z,284.23
2022-09-20T12:47:01.066Z,170.02
2022-09-20T12:49:48.099Z,56.53
2022-09-20T12:52:56.561Z,76.63
2022-09-20T12:55:31.006Z,66.43
2022-09-20T13:00:40.346Z,25.55
2022-09-20T13:03:29.257Z,46.83
2022-09-20T13:06:07.476Z,52.00
2022-09-20T13:08:49.001Z,49.53
2022-09-20T13:11:42.812Z,18.95
2022-09-20T13:14:25.025Z,31.98
2022-09-20T13:17:21.870Z,30.52
2022-09-20T13:19:56.713Z,45.67
2022-09-20T13:22:38.706Z,52.10
2022-09-20T13:25:14.177Z,23.17
2022-09-20T13:28:25.440Z,76.50
2022-09-20T13:31:34.709Z,61.63
2022-09-20T13:34:26.809Z,105.72
2022-09-20T13:36:59.005Z,54.15
2022-09-20T13:39:38.208Z,31.88
2022-09-20T13:42:13.506Z,217.18
2022-09-20T13:44:49.779Z,34.78
2022-09-20T13:47:27.566Z,127.45
2022-09-20T13:50:19.615Z,136.88
2022-09-20T13:52:57.226Z,112.85
2022-09-20T13:55:29.574Z,118.32
2022-09-20T13:58:03.813Z,180.30
2022-09-20T14:00:35.698Z,102.28
2022-09-20T14:03:05.866Z,99.45
2022-09-20T14:05:35.027Z,96.53
2022-09-20T14:08:04.248Z,181.45
2022-09-20T14:10:41.644Z,109.82
2022-09-20T14:13:17.799Z,174.73
2022-09-20T14:15:48.949Z,213.68
2022-09-20T14:18:21.988Z,144.85
2022-09-20T14:20:51.319Z,128.20
2022-09-20T14:23:28.489Z,138.57
2022-09-20T14:26:30.227Z,145.88
2022-09-20T14:29:40.852Z,163.75
2022-09-20T14:32:18.478Z,131.50
2022-09-20T14:34:57.587Z,124.88
2022-09-20T14:37:26.667Z,157.40
2022-09-20T14:40:01.851Z,136.98
2022-09-20T14:43:04.371Z,129.65
2022-09-20T14:45:36.005Z,139.23
2022-09-20T14:48:27.627Z,159.60
2022-09-20T14:51:19.604Z,145.98
2022-09-20T14:53:52.488Z,156.65
2022-09-20T14:56:35.431Z,150.93
2022-09-20T14:59:22.004Z,172.52
2022-09-20T15:02:04.232Z,166.63
2022-09-20T15:04:38.809Z,159.25
2022-09-20T15:07:14.370Z,154.88
2022-09-20T15:09:43.230Z,161.60
2022-09-20T15:12:18.908Z,164.10
2022-09-20T15:14:48.893Z,146.65
2022-09-20T15:17:22.893Z,152.90
2022-09-20T15:19:51.732Z,210.50
2022-09-20T15:22:22.919Z,209.82
2022-09-20T15:24:51.705Z,208.82
2022-09-20T15:27:21.075Z,220.30
2022-09-20T15:29:51.953Z,209.23
2022-09-20T15:32:20.728Z,193.25
2022-09-20T15:34:49.540Z,206.35
2022-09-20T15:37:18.473Z,227.43
2022-09-20T15:39:47.266Z,304.48
2022-09-20T15:42:17.653Z,290.30
2022-09-20T15:44:53.968Z,284.38
2022-09-20T15:47:24.259Z,275.88
2022-09-20T15:49:57.579Z,256.27
2022-09-20T15:52:29.956Z,286.35
2022-09-20T15:55:14.158Z,336.65
2022-09-20T15:57:42.927Z,274.70
2022-09-20T16:00:11.970Z,263.27
2022-09-20T16:02:40.900Z,337.63
2022-09-20T16:05:10.788Z,185.05
2022-09-20T16:07:39.788Z,221.55
2022-09-20T16:10:10.350Z,222.52
2022-09-20T16:12:41.616Z,181.50
2022-09-20T16:15:11.252Z,159.85
2022-09-20T16:17:58.337Z,168.40
2022-09-20T16:20:27.165Z,167.75
2022-09-20T16:22:55.860Z,183.10
2022-09-20T16:25:24.626Z,185.13
2022-09-20T16:27:53.495Z,182.82
2022-09-20T16:30:22.186Z,177.95
2022-09-20T16:32:51.591Z,177.52
2022-09-20T16:35:20.537Z,189.02
2022-09-20T16:37:49.449Z,190.75
2022-09-20T16:40:18.354Z,167.68
2022-09-20T16:42:52.229Z,175.35
2022-09-20T16:45:22.287Z,174.95
2022-09-20T16:47:50.963Z,196.05
2022-09-20T16:50:20.205Z,143.20
2022-09-20T16:52:49.044Z,170.30
2022-09-20T16:55:18.842Z,164.15
2022-09-20T16:57:53.829Z,160.93
2022-09-20T17:00:22.837Z,154.93
2022-09-20T17:02:52.117Z,149.63
2022-09-20T17:05:20.860Z,129.55
2022-09-20T17:07:49.779Z,201.18
2022-09-20T17:10:18.626Z,373.23
2022-09-20T17:12:53.514Z,349.15
2022-09-20T17:15:24.054Z,328.08
2022-09-20T17:17:52.720Z,280.17
2022-09-20T17:20:21.520Z,265.85
2022-09-20T17:22:50.300Z,244.07
2022-09-20T17:25:19.300Z,214.73
2022-09-20T17:27:50.187Z,249.63
2022-09-20T17:30:20.724Z,200.07
2022-09-20T17:32:52.457Z,201.65
2022-09-20T17:35:21.571Z,174.88
2022-09-20T17:37:50.856Z,211.88
2022-09-20T17:40:19.737Z,165.00
2022-09-20T17:42:51.382Z,172.07
2022-09-20T17:45:20.321Z,149.90
2022-09-20T17:47:49.004Z,156.57
2022-09-20T17:50:18.145Z,154.38
2022-09-20T17:52:50.482Z,149.10
2022-09-20T17:55:20.760Z,154.77
2022-09-20T17:57:50.490Z,218.18
2022-09-20T18:00:21.190Z,175.52
2022-09-20T18:02:50.112Z,106.75
2022-09-20T18:05:20.138Z,153.48
2022-09-20T18:07:49.290Z,154.85
2022-09-20T18:10:18.410Z,142.38
2022-09-20T18:12:47.909Z,147.48
2022-09-20T18:15:17.587Z,129.85
2022-09-20T18:17:47.796Z,130.20
2022-09-20T18:20:18.852Z,43.95
2022-09-20T18:22:50.756Z,93.97
2022-09-20T18:25:20.402Z,79.10
2022-09-20T18:27:50.194Z,100.03
2022-09-20T18:30:21.705Z,111.65
2022-09-20T18:32:53.424Z,103.93
2022-09-20T18:35:22.429Z,106.22
2022-09-20T18:37:51.082Z,66.18
2022-09-20T18:40:20.768Z,216.90
2022-09-20T18:42:52.855Z,74.15
2022-09-20T18:45:24.093Z,62.60
2022-09-20T18:47:57.885Z,101.82
2022-09-20T18:50:27.423Z,82.07
2022-09-20T18:52:56.479Z,59.42
2022-09-20T18:55:26.983Z,67.07
2022-09-20T18:58:00.685Z,57.17
2022-09-20T19:00:30.475Z,63.88
2022-09-20T19:03:12.066Z,72.45
2022-09-20T19:05:52.713Z,57.35
2022-09-20T19:08:35.104Z,70.55
2022-09-20T19:11:11.659Z,72.78
2022-09-20T19:13:47.777Z,142.38
2022-09-20T19:16:28.681Z,80.95
2022-09-20T19:19:22.553Z,96.43
2022-09-20T19:21:51.925Z,82.63
2022-09-20T19:24:40.443Z,76.70
2022-09-20T19:27:13.047Z,70.95
2022-09-20T19:29:42.844Z,64.68
2022-09-20T19:32:19.623Z,67.13
2022-09-20T19:34:52.465Z,58.53
2022-09-20T19:37:28.319Z,52.17
2022-09-20T19:40:35.977Z,54.85
2022-09-20T19:43:36.658Z,70.30
2022-09-20T19:46:33.056Z,77.95
2022-09-20T19:49:15.732Z,105.38
2022-09-20T19:51:46.331Z,104.70
2022-09-20T19:54:15.918Z,74.35
2022-09-20T19:57:08.322Z,94.95
2022-09-20T19:59:37.056Z,45.17
2022-09-20T20:02:06.641Z,36.70
2022-09-20T20:04:35.505Z,47.67
2022-09-20T20:07:21.491Z,45.75
2022-09-20T20:10:26.060Z,40.53
2022-09-20T20:13:37.484Z,32.17
2022-09-20T20:16:12.152Z,32.42
2022-09-20T20:19:07.546Z,38.42
2022-09-20T20:21:58.457Z,31.73
2022-09-20T20:24:50.820Z,111.07
2022-09-20T20:27:20.527Z,42.50
2022-09-20T20:29:50.129Z,112.00
2022-09-20T20:32:19.129Z,75.95
2022-09-20T20:34:47.825Z,47.67
2022-09-20T20:37:18.914Z,43.15
2022-09-20T20:39:47.592Z,60.92
2022-09-20T20:42:16.725Z,46.17
2022-09-20T20:44:46.242Z,45.53
2022-09-20T20:47:14.989Z,45.72
2022-09-20T20:49:43.639Z,40.10
2022-09-20T20:52:12.276Z,43.25
2022-09-20T20:54:41.007Z,175.38
2022-09-20T20:57:09.522Z,92.20
2022-09-20T20:59:41.009Z,45.22
2022-09-20T21:02:10.075Z,113.38
2022-09-20T21:04:40.818Z,88.75
2022-09-20T21:07:09.402Z,50.85
2022-09-20T21:09:38.415Z,86.07
2022-09-20T21:12:07.433Z,47.50
2022-09-20T21:14:36.098Z,37.33
2022-09-20T21:17:05.546Z,45.45
2022-09-20T21:19:35.022Z,41.45
2022-09-20T21:22:05.553Z,36.55
2022-09-20T21:24:34.427Z,86.55
2022-09-20T21:27:05.946Z,58.40
2022-09-20T21:29:35.023Z,59.20
2022-09-20T21:32:03.875Z,53.30
2022-09-20T21:34:32.894Z,181.70
2022-09-20T21:37:01.417Z,36.10
2022-09-20T21:39:30.831Z,43.88
2022-09-20T21:41:59.886Z,111.05
2022-09-20T21:44:28.551Z,40.97
2022-09-20T21:46:57.831Z,48.78
2022-09-20T21:49:26.680Z,34.13
2022-09-20T21:51:55.474Z,36.08
2022-09-20T21:54:25.042Z,34.47
2022-09-20T21:56:56.949Z,33.17
2022-09-20T21:59:27.672Z,77.40
2022-09-20T22:01:57.221Z,42.83
2022-09-20T22:04:29.774Z,29.50
2022-09-20T22:06:59.189Z,40.80
2022-09-20T22:09:27.854Z,32.35
2022-09-20T22:11:56.654Z,63.35
2022-09-20T22:14:25.551Z,31.05
2022-09-20T22:16:54.589Z,111.47
2022-09-20T22:19:23.308Z,45.35
2022-09-20T22:21:52.866Z,31.90
2022-09-20T22:24:22.262Z,104.15
2022-09-20T22:26:52.199Z,32.78
2022-09-20T22:29:21.675Z,42.30
2022-09-20T22:31:51.118Z,171.27
2022-09-20T22:34:25.024Z,326.77
2022-09-20T22:36:54.538Z,36.17
2022-09-20T22:39:24.974Z,96.50
2022-09-20T22:41:55.805Z,208.77
2022-09-20T22:44:25.182Z,189.07
2022-09-20T22:46:54.519Z,68.80
2022-09-20T22:49:23.623Z,123.38
2022-09-20T22:51:53.327Z,84.20
2022-09-20T22:54:23.287Z,222.13
2022-09-20T22:56:53.051Z,51.70
2022-09-20T22:59:22.060Z,98.68
2022-09-20T23:01:51.637Z,100.40
2022-09-20T23:04:24.349Z,54.30
2022-09-20T23:06:57.497Z,41.03
2022-09-20T23:09:30.989Z,70.05
2022-09-20T23:12:00.024Z,94.38
2022-09-20T23:14:28.747Z,53.22
2022-09-20T23:16:57.642Z,62.20
2022-09-20T23:19:27.026Z,31.95
2022-09-20T23:21:55.886Z,48.05
2022-09-20T23:24:24.557Z,27.08
2022-09-20T23:26:53.267Z,29.67
2022-09-20T23:29:23.199Z,28.13
2022-09-20T23:31:54.892Z,46.65
2022-09-20T23:34:23.837Z,28.17
2022-09-20T23:36:52.693Z,42.80
2022-09-20T23:39:21.654Z,39.38
2022-09-20T23:41:51.431Z,36.85
2022-09-20T23:44:20.332Z,67.03
2022-09-20T23:46:49.322Z,33.40
2022-09-20T23:49:18.136Z,37.78
2022-09-20T23:51:47.505Z,35.50
2022-09-20T23:54:16.446Z,36.00
2022-09-20T23:56:45.232Z,29.58
2022-09-20T23:59:14.168Z,37.75
